createdAt,value
2023-02-22T00:00:17.725Z,4.2
2023-02-22T00:06:09.506Z,4.1
2023-02-22T00:12:01.757Z,3.9
2023-02-22T00:17:55.481Z,3.8
2023-02-22T00:23:47.489Z,3.8
2023-02-22T00:29:39.342Z,3.8
2023-02-22T00:35:18.081Z,3.7
2023-02-22T00:40:54.699Z,3.8
2023-02-22T00:46:47.295Z,3.6
2023-02-22T00:52:09.639Z,3.5
2023-02-22T00:58:02.104Z,3.5
2023-02-22T01:03:56.062Z,3.4
2023-02-22T01:09:33.981Z,3.2
2023-02-22T01:15:27.359Z,3
2023-02-22T01:21:05.884Z,2.8
2023-02-22T01:26:58.749Z,2.5
2023-02-22T01:32:36.107Z,2.3
2023-02-22T01:38:13.103Z,2.1
2023-02-22T01:43:51.543Z,1.9
2023-02-22T01:49:43.521Z,1.8
2023-02-22T01:55:36.017Z,1.7
2023-02-22T02:01:28.187Z,1.5
2023-02-22T02:07:20.908Z,1.4
2023-02-22T02:13:13.627Z,1.4
2023-02-22T02:18:50.989Z,1.2
2023-02-22T02:24:12.841Z,1.1
2023-02-22T02:29:49.609Z,0.9
2023-02-22T02:35:43.549Z,0.7
2023-02-22T02:41:36.724Z,0.5
2023-02-22T02:46:58.459Z,0.4
2023-02-22T02:52:52.558Z,0.3
2023-02-22T02:58:44.332Z,0.1
2023-02-22T03:04:21.487Z,0.1
2023-02-22T03:10:15.435Z,-0.1
2023-02-22T03:16:07.865Z,-0.1
2023-02-22T03:21:59.968Z,-0.2
2023-02-22T03:27:53.353Z,-0.2
2023-02-22T03:33:30.028Z,-0.2
2023-02-22T03:39:22.000Z,-0.1
2023-02-22T03:45:00.770Z,-0.1
2023-02-22T03:50:38.163Z,0
2023-02-22T03:56:31.708Z,0
2023-02-22T04:01:54.893Z,0
2023-02-22T04:07:47.807Z,0
2023-02-22T04:13:09.015Z,-0.1
2023-02-22T04:19:02.116Z,-0.1
2023-02-22T04:24:54.412Z,-0.2
2023-02-22T04:30:46.280Z,-0.3
2023-02-22T04:36:25.999Z,-0.4
2023-02-22T04:42:02.940Z,-0.6
2023-02-22T04:47:40.388Z,-0.6
2023-02-22T04:53:35.330Z,-0.7
2023-02-22T04:59:27.882Z,-0.9
2023-02-22T05:10:57.546Z,-1.1
2023-02-22T05:16:19.585Z,-1.1
2023-02-22T05:22:12.158Z,-1.2
2023-02-22T05:28:05.349Z,-1.2
2023-02-22T05:33:59.084Z,-1.2
2023-02-22T05:39:51.933Z,-1
2023-02-22T05:45:44.920Z,-0.3
2023-02-22T05:51:23.310Z,1.2
2023-02-22T05:57:16.606Z,3.6
2023-02-22T06:03:10.001Z,7
2023-02-22T06:08:46.690Z,10.6
2023-02-22T06:14:38.332Z,12.4
2023-02-22T06:20:31.238Z,16.9
2023-02-22T06:26:08.465Z,21.2
2023-02-22T06:31:46.266Z,24.8
2023-02-22T06:37:23.648Z,27.6
2023-02-22T06:43:00.972Z,29.9
2023-02-22T06:48:38.483Z,33.5
2023-02-22T06:54:17.816Z,37.5
2023-02-22T06:59:55.115Z,41.8
2023-02-22T07:05:34.119Z,45.9
2023-02-22T07:11:14.301Z,49.7
2023-02-22T07:16:51.517Z,53.3
2023-02-22T07:22:29.313Z,56.8
2023-02-22T07:27:52.340Z,59.9
2023-02-22T07:33:47.189Z,57.2
2023-02-22T07:39:40.435Z,46.9
2023-02-22T07:45:33.610Z,50.2
2023-02-22T07:51:26.250Z,57.7
2023-02-22T07:57:18.064Z,58.1
2023-02-22T08:03:10.861Z,48.8
2023-02-22T08:09:03.296Z,52.1
2023-02-22T08:14:40.286Z,61
2023-02-22T08:20:34.534Z,57.2
2023-02-22T08:26:27.592Z,49.7
2023-02-22T08:32:25.165Z,59.8
2023-02-22T08:38:19.421Z,59.8
2023-02-22T08:44:11.922Z,53.1
2023-02-22T08:50:04.948Z,53.6
2023-02-22T08:55:59.430Z,54.6
2023-02-22T09:02:05.594Z,55.5
2023-02-22T09:07:58.125Z,56.6
2023-02-22T09:13:54.283Z,57.8
2023-02-22T09:19:55.677Z,58.8
2023-02-22T09:25:55.435Z,58.9
2023-02-22T09:31:50.119Z,59.6
2023-02-22T09:37:30.306Z,60.1
2023-02-22T09:43:23.641Z,60.3
2023-02-22T09:49:32.891Z,60.8
2023-02-22T09:55:10.858Z,61
2023-02-22T10:00:48.072Z,61
2023-02-22T10:06:41.684Z,61.3
2023-02-22T10:12:02.856Z,61.9
2023-02-22T10:17:09.786Z,62.6
2023-02-22T10:23:03.688Z,63.8
2023-02-22T10:28:40.767Z,63.8
2023-02-22T10:34:39.866Z,63.6
2023-02-22T10:40:35.425Z,63.6
2023-02-22T10:45:58.111Z,64
2023-02-22T10:51:37.178Z,64.9
2023-02-22T10:57:19.724Z,65
2023-02-22T11:02:56.185Z,65.1
2023-02-22T11:08:34.326Z,64.7
2023-02-22T11:14:13.073Z,65.8
2023-02-22T11:19:37.331Z,66.2
2023-02-22T11:25:23.249Z,64.7
2023-02-22T11:31:01.680Z,65.5
2023-02-22T11:37:09.472Z,65.1
2023-02-22T11:42:31.863Z,65.1
2023-02-22T11:48:18.797Z,65
2023-02-22T11:54:12.397Z,65.1
2023-02-22T11:59:46.796Z,64.2
2023-02-22T12:05:49.945Z,64.4
2023-02-22T12:11:48.037Z,64.3
2023-02-22T12:17:45.733Z,63.7
2023-02-22T12:23:44.652Z,63
2023-02-22T12:29:37.078Z,62.2
2023-02-22T12:35:31.343Z,61.9
2023-02-22T12:41:05.457Z,61.3
2023-02-22T12:46:58.507Z,65.9
2023-02-22T12:53:02.753Z,69.7
2023-02-22T12:58:40.214Z,60.4
2023-02-22T13:04:31.211Z,60.8
2023-02-22T13:10:23.865Z,65.2
2023-02-22T13:16:17.388Z,67.1
2023-02-22T13:21:55.514Z,66.6
2023-02-22T13:27:33.250Z,58.8
2023-02-22T13:33:42.915Z,58.5
2023-02-22T13:39:20.570Z,59.8
2023-02-22T13:45:13.322Z,61.1
2023-02-22T13:51:10.329Z,61.4
2023-02-22T13:57:05.366Z,60.9
2023-02-22T14:03:00.983Z,60
2023-02-22T14:08:57.785Z,58.8
2023-02-22T14:14:35.940Z,57.1
2023-02-22T14:20:37.138Z,55.4
2023-02-22T14:26:40.218Z,53.7
2023-02-22T14:32:48.023Z,51.5
2023-02-22T14:38:58.489Z,49.5
2023-02-22T14:44:54.236Z,47.3
2023-02-22T14:50:50.463Z,45.1
2023-02-22T14:56:56.978Z,42.8
2023-02-22T15:02:49.160Z,40.8
2023-02-22T15:08:54.154Z,38.6
2023-02-22T15:14:59.504Z,36.4
2023-02-22T15:20:54.274Z,34.6
2023-02-22T15:27:00.981Z,32.7
2023-02-22T15:32:47.245Z,30.9
2023-02-22T15:38:54.742Z,29.2
2023-02-22T15:44:57.661Z,27.6
2023-02-22T15:50:50.622Z,26
2023-02-22T15:56:53.895Z,24.4
2023-02-22T16:02:33.539Z,23
2023-02-22T16:08:45.867Z,21.5
2023-02-22T16:14:43.109Z,20.1
2023-02-22T16:20:55.050Z,18.9
2023-02-22T16:27:01.448Z,17.8
2023-02-22T16:32:50.376Z,16.9
2023-02-22T16:38:30.843Z,16.1
2023-02-22T16:44:09.296Z,15.4
2023-02-22T16:49:47.762Z,14.8
2023-02-22T16:55:40.995Z,14.2
2023-02-22T17:01:17.998Z,13.7
2023-02-22T17:07:12.296Z,13.2
2023-02-22T17:12:49.071Z,12.7
2023-02-22T17:18:58.581Z,12.3
2023-02-22T17:24:20.576Z,11.8
2023-02-22T17:30:14.175Z,11.4
2023-02-22T17:35:53.432Z,10.9
2023-02-22T17:41:47.324Z,10.4
2023-02-22T17:47:39.976Z,10.1
2023-02-22T17:54:13.367Z,9.8
2023-02-22T17:59:35.172Z,9.5
2023-02-22T18:05:28.340Z,9.3
2023-02-22T18:10:51.009Z,9.1
2023-02-22T18:16:28.828Z,8.8
2023-02-22T18:22:06.844Z,8.5
2023-02-22T18:28:12.586Z,8.3
2023-02-22T18:34:06.498Z,8.1
2023-02-22T18:40:00.026Z,7.8
2023-02-22T18:45:53.722Z,7.6
2023-02-22T18:51:48.310Z,7.4
2023-02-22T18:57:45.324Z,7.2
2023-02-22T19:03:39.528Z,7.1
2023-02-22T19:09:34.080Z,7
2023-02-22T19:15:27.513Z,6.8
2023-02-22T19:21:27.520Z,6.7
2023-02-22T19:27:21.321Z,6.5
2023-02-22T19:33:15.443Z,6.5
2023-02-22T19:39:10.419Z,6.4
2023-02-22T19:45:08.366Z,6.2
2023-02-22T19:51:02.377Z,6
2023-02-22T19:56:56.120Z,5.9
2023-02-22T20:02:49.891Z,5.8
2023-02-22T20:08:44.567Z,5.6
2023-02-22T20:14:37.141Z,5.4
2023-02-22T20:20:15.276Z,5.3
2023-02-22T20:26:08.966Z,5.3
2023-02-22T20:31:50.756Z,5.1
2023-02-22T20:37:46.038Z,5.1
2023-02-22T20:43:23.382Z,5
2023-02-22T20:49:00.530Z,4.9
2023-02-22T20:54:54.474Z,4.8
2023-02-22T21:00:50.225Z,4.7
2023-02-22T21:06:45.793Z,4.6
2023-02-22T21:12:39.225Z,4.4
2023-02-22T21:18:35.669Z,4.4
2023-02-22T21:24:28.908Z,4.3
2023-02-22T21:30:21.186Z,4.2
2023-02-22T21:36:15.595Z,4.1
2023-02-22T21:42:09.191Z,4
2023-02-22T21:48:02.243Z,3.9
2023-02-22T21:53:55.355Z,3.7
2023-02-22T21:59:48.274Z,3.5
2023-02-22T22:05:41.598Z,3.4
2023-02-22T22:11:35.370Z,3.3
2023-02-22T22:17:33.679Z,3.1
2023-02-22T22:23:26.429Z,2.9
2023-02-22T22:29:20.335Z,2.7
2023-02-22T22:35:12.446Z,2.5
2023-02-22T22:40:50.104Z,2.4
2023-02-22T22:46:28.198Z,2.2
2023-02-22T22:52:07.717Z,2.1
2023-02-22T22:58:00.034Z,1.9
2023-02-22T23:03:54.227Z,1.8
2023-02-22T23:09:47.834Z,1.8
2023-02-22T23:15:40.801Z,1.7
2023-02-22T23:21:34.408Z,1.6
2023-02-22T23:27:26.434Z,1.6
2023-02-22T23:33:05.413Z,1.6
2023-02-22T23:39:00.907Z,1.6
2023-02-22T23:44:53.824Z,1.5
2023-02-22T23:50:31.969Z,1.5
2023-02-22T23:56:09.905Z,1.4
